sensor_id;sensor_type;location;lat;lon;timestamp;P1;durP1;ratioP1;P2;durP2;ratioP2
4921;SDS011;16625;53.624;10.106;2022-11-24T00:00:33;10.53;;;6.67;;
4921;SDS011;16625;53.624;10.106;2022-11-24T00:03:00;13.70;;;6.73;;
4921;SDS011;16625;53.624;10.106;2022-11-24T00:05:28;11.93;;;6.10;;
4921;SDS011;16625;53.624;10.106;2022-11-24T00:08:00;11.93;;;6.50;;
4921;SDS011;16625;53.624;10.106;2022-11-24T00:20:15;11.10;;;7.10;;
4921;SDS011;16625;53.624;10.106;2022-11-24T00:25:53;7.00;;;6.27;;
4921;SDS011;16625;53.624;10.106;2022-11-24T00:28:35;15.03;;;7.63;;
4921;SDS011;16625;53.624;10.106;2022-11-24T07:11:24;16.20;;;7.53;;
4921;SDS011;16625;53.624;10.106;2022-11-24T07:58:11;19.27;;;7.20;;
4921;SDS011;16625;53.624;10.106;2022-11-24T08:11:21;19.53;;;8.70;;
4921;SDS011;16625;53.624;10.106;2022-11-24T08:13:53;14.80;;;8.73;;
4921;SDS011;16625;53.624;10.106;2022-11-24T08:16:20;22.47;;;8.37;;
4921;SDS011;16625;53.624;10.106;2022-11-24T08:18:48;22.00;;;9.20;;
4921;SDS011;16625;53.624;10.106;2022-11-24T08:21:17;13.37;;;7.73;;
4921;SDS011;16625;53.624;10.106;2022-11-24T08:23:44;14.50;;;8.70;;
4921;SDS011;16625;53.624;10.106;2022-11-24T08:26:14;13.30;;;7.43;;
4921;SDS011;16625;53.624;10.106;2022-11-24T08:28:43;20.33;;;8.10;;
4921;SDS011;16625;53.624;10.106;2022-11-24T08:31:14;13.80;;;7.73;;
4921;SDS011;16625;53.624;10.106;2022-11-24T08:33:42;12.30;;;8.70;;
4921;SDS011;16625;53.624;10.106;2022-11-24T08:36:13;21.47;;;9.20;;
4921;SDS011;16625;53.624;10.106;2022-11-24T08:38:41;28.17;;;9.77;;
4921;SDS011;16625;53.624;10.106;2022-11-24T08:41:10;13.50;;;9.03;;
4921;SDS011;16625;53.624;10.106;2022-11-24T08:44:00;18.90;;;8.67;;
4921;SDS011;16625;53.624;10.106;2022-11-24T08:46:29;20.80;;;8.03;;
4921;SDS011;16625;53.624;10.106;2022-11-24T08:48:56;18.00;;;8.57;;
4921;SDS011;16625;53.624;10.106;2022-11-24T08:51:26;14.20;;;8.20;;
4921;SDS011;16625;53.624;10.106;2022-11-24T08:53:53;22.07;;;7.13;;
4921;SDS011;16625;53.624;10.106;2022-11-24T08:56:22;25.73;;;10.50;;
4921;SDS011;16625;53.624;10.106;2022-11-24T08:58:52;17.73;;;8.37;;
4921;SDS011;16625;53.624;10.106;2022-11-24T09:01:20;27.17;;;8.83;;
4921;SDS011;16625;53.624;10.106;2022-11-24T09:03:49;13.80;;;7.50;;
4921;SDS011;16625;53.624;10.106;2022-11-24T09:06:18;25.20;;;9.07;;
4921;SDS011;16625;53.624;10.106;2022-11-24T09:08:47;19.73;;;8.60;;
4921;SDS011;16625;53.624;10.106;2022-11-24T09:11:14;22.03;;;7.90;;
4921;SDS011;16625;53.624;10.106;2022-11-24T09:13:43;20.33;;;7.97;;
4921;SDS011;16625;53.624;10.106;2022-11-24T09:16:10;23.50;;;10.53;;
4921;SDS011;16625;53.624;10.106;2022-11-24T09:18:42;15.67;;;8.27;;
4921;SDS011;16625;53.624;10.106;2022-11-24T09:21:29;22.60;;;8.30;;
4921;SDS011;16625;53.624;10.106;2022-11-24T09:24:00;16.80;;;8.70;;
4921;SDS011;16625;53.624;10.106;2022-11-24T09:26:28;21.17;;;9.10;;
4921;SDS011;16625;53.624;10.106;2022-11-24T09:28:57;12.13;;;6.80;;
4921;SDS011;16625;53.624;10.106;2022-11-24T09:31:27;24.27;;;9.17;;
4921;SDS011;16625;53.624;10.106;2022-11-24T09:33:57;21.23;;;9.50;;
4921;SDS011;16625;53.624;10.106;2022-11-24T09:36:24;18.43;;;8.83;;
4921;SDS011;16625;53.624;10.106;2022-11-24T09:38:54;13.97;;;7.90;;
4921;SDS011;16625;53.624;10.106;2022-11-24T09:44:44;28.10;;;8.50;;
4921;SDS011;16625;53.624;10.106;2022-11-24T09:47:26;15.10;;;9.07;;
4921;SDS011;16625;53.624;10.106;2022-11-24T09:50:04;22.30;;;7.80;;
4921;SDS011;16625;53.624;10.106;2022-11-24T09:52:38;18.40;;;7.43;;
4921;SDS011;16625;53.624;10.106;2022-11-24T09:55:20;19.70;;;7.67;;
4921;SDS011;16625;53.624;10.106;2022-11-24T09:57:54;16.33;;;7.10;;
4921;SDS011;16625;53.624;10.106;2022-11-24T10:00:28;25.37;;;9.07;;
4921;SDS011;16625;53.624;10.106;2022-11-24T10:02:56;16.03;;;8.23;;
4921;SDS011;16625;53.624;10.106;2022-11-24T10:05:23;23.43;;;8.30;;
4921;SDS011;16625;53.624;10.106;2022-11-24T10:07:59;30.23;;;8.13;;
4921;SDS011;16625;53.624;10.106;2022-11-24T10:10:36;18.67;;;7.50;;
4921;SDS011;16625;53.624;10.106;2022-11-24T10:13:16;15.40;;;7.50;;
4921;SDS011;16625;53.624;10.106;2022-11-24T10:16:12;23.30;;;7.80;;
4921;SDS011;16625;53.624;10.106;2022-11-24T10:18:48;14.20;;;7.07;;
4921;SDS011;16625;53.624;10.106;2022-11-24T10:21:31;17.13;;;8.10;;
4921;SDS011;16625;53.624;10.106;2022-11-24T10:24:09;17.37;;;7.77;;
4921;SDS011;16625;53.624;10.106;2022-11-24T10:27:13;18.50;;;9.00;;
4921;SDS011;16625;53.624;10.106;2022-11-24T10:29:42;19.53;;;7.80;;
4921;SDS011;16625;53.624;10.106;2022-11-24T10:32:12;14.67;;;8.43;;
4921;SDS011;16625;53.624;10.106;2022-11-24T10:34:43;22.40;;;7.90;;
4921;SDS011;16625;53.624;10.106;2022-11-24T10:37:12;19.50;;;8.77;;
4921;SDS011;16625;53.624;10.106;2022-11-24T10:39:45;20.00;;;7.47;;
4921;SDS011;16625;53.624;10.106;2022-11-24T10:42:19;19.33;;;7.90;;
4921;SDS011;16625;53.624;10.106;2022-11-24T10:44:57;18.57;;;6.80;;
4921;SDS011;16625;53.624;10.106;2022-11-24T10:47:25;19.73;;;6.80;;
4921;SDS011;16625;53.624;10.106;2022-11-24T10:49:54;13.53;;;6.40;;
4921;SDS011;16625;53.624;10.106;2022-11-24T10:52:25;16.37;;;6.77;;
4921;SDS011;16625;53.624;10.106;2022-11-24T10:54:55;18.27;;;7.00;;
4921;SDS011;16625;53.624;10.106;2022-11-24T10:57:29;21.70;;;6.73;;
4921;SDS011;16625;53.624;10.106;2022-11-24T10:59:57;16.43;;;7.53;;
4921;SDS011;16625;53.624;10.106;2022-11-24T11:02:34;19.17;;;6.80;;
4921;SDS011;16625;53.624;10.106;2022-11-24T11:08:09;18.20;;;7.03;;
4921;SDS011;16625;53.624;10.106;2022-11-24T11:10:41;18.40;;;5.77;;
4921;SDS011;16625;53.624;10.106;2022-11-24T11:13:23;19.30;;;6.67;;
4921;SDS011;16625;53.624;10.106;2022-11-24T11:15:52;13.33;;;5.70;;
4921;SDS011;16625;53.624;10.106;2022-11-24T11:18:20;9.43;;;5.73;;
4921;SDS011;16625;53.624;10.106;2022-11-24T11:20:49;27.97;;;7.67;;
4921;SDS011;16625;53.624;10.106;2022-11-24T11:23:19;22.47;;;7.67;;
4921;SDS011;16625;53.624;10.106;2022-11-24T11:25:50;22.47;;;6.40;;
4921;SDS011;16625;53.624;10.106;2022-11-24T11:28:38;11.70;;;6.70;;
4921;SDS011;16625;53.624;10.106;2022-11-24T11:31:22;18.40;;;6.43;;
4921;SDS011;16625;53.624;10.106;2022-11-24T11:33:56;21.57;;;5.93;;
4921;SDS011;16625;53.624;10.106;2022-11-24T11:36:25;16.10;;;5.77;;
4921;SDS011;16625;53.624;10.106;2022-11-24T11:38:53;15.03;;;7.50;;
4921;SDS011;16625;53.624;10.106;2022-11-24T11:41:23;19.17;;;5.60;;
4921;SDS011;16625;53.624;10.106;2022-11-24T11:43:59;11.53;;;5.90;;
4921;SDS011;16625;53.624;10.106;2022-11-24T11:46:37;12.53;;;6.57;;
4921;SDS011;16625;53.624;10.106;2022-11-24T11:49:04;17.00;;;5.90;;
4921;SDS011;16625;53.624;10.106;2022-11-24T11:54:26;15.60;;;6.43;;
4921;SDS011;16625;53.624;10.106;2022-11-24T11:57:01;15.53;;;7.10;;
4921;SDS011;16625;53.624;10.106;2022-11-24T11:59:43;16.10;;;6.10;;
4921;SDS011;16625;53.624;10.106;2022-11-24T12:02:35;17.63;;;7.17;;
4921;SDS011;16625;53.624;10.106;2022-11-24T12:05:23;16.40;;;6.30;;
4921;SDS011;16625;53.624;10.106;2022-11-24T12:08:00;11.77;;;5.10;;
4921;SDS011;16625;53.624;10.106;2022-11-24T12:10:45;17.03;;;6.17;;
4921;SDS011;16625;53.624;10.106;2022-11-24T12:13:23;18.60;;;6.00;;
4921;SDS011;16625;53.624;10.106;2022-11-24T12:16:13;16.03;;;6.30;;
4921;SDS011;16625;53.624;10.106;2022-11-24T12:18:56;20.90;;;6.90;;
4921;SDS011;16625;53.624;10.106;2022-11-24T12:21:39;22.80;;;6.23;;
4921;SDS011;16625;53.624;10.106;2022-11-24T12:24:13;22.37;;;6.53;;
4921;SDS011;16625;53.624;10.106;2022-11-24T12:26:47;20.53;;;6.23;;
4921;SDS011;16625;53.624;10.106;2022-11-24T12:32:20;12.10;;;5.53;;
4921;SDS011;16625;53.624;10.106;2022-11-24T12:35:02;18.83;;;6.47;;
4921;SDS011;16625;53.624;10.106;2022-11-24T12:37:41;14.70;;;6.33;;
4921;SDS011;16625;53.624;10.106;2022-11-24T12:40:20;24.60;;;7.80;;
4921;SDS011;16625;53.624;10.106;2022-11-24T12:42:56;26.90;;;6.90;;
4921;SDS011;16625;53.624;10.106;2022-11-24T12:45:30;21.47;;;6.47;;
4921;SDS011;16625;53.624;10.106;2022-11-24T12:48:11;27.10;;;6.83;;
4921;SDS011;16625;53.624;10.106;2022-11-24T12:50:47;14.67;;;7.67;;
4921;SDS011;16625;53.624;10.106;2022-11-24T12:53:17;14.03;;;6.10;;
4921;SDS011;16625;53.624;10.106;2022-11-24T12:55:48;11.30;;;5.53;;
4921;SDS011;16625;53.624;10.106;2022-11-24T12:58:17;20.77;;;6.97;;
4921;SDS011;16625;53.624;10.106;2022-11-24T13:00:54;16.60;;;5.40;;
4921;SDS011;16625;53.624;10.106;2022-11-24T13:03:37;21.37;;;6.43;;
4921;SDS011;16625;53.624;10.106;2022-11-24T13:06:14;13.13;;;5.63;;
4921;SDS011;16625;53.624;10.106;2022-11-24T13:08:45;13.63;;;5.60;;
4921;SDS011;16625;53.624;10.106;2022-11-24T13:14:05;18.90;;;6.00;;
4921;SDS011;16625;53.624;10.106;2022-11-24T13:16:46;12.53;;;6.53;;
4921;SDS011;16625;53.624;10.106;2022-11-24T13:19:17;18.83;;;6.30;;
4921;SDS011;16625;53.624;10.106;2022-11-24T13:21:47;18.73;;;5.30;;
4921;SDS011;16625;53.624;10.106;2022-11-24T13:24:26;19.20;;;5.73;;
4921;SDS011;16625;53.624;10.106;2022-11-24T13:29:57;22.63;;;6.97;;
4921;SDS011;16625;53.624;10.106;2022-11-24T13:35:27;14.70;;;6.00;;
4921;SDS011;16625;53.624;10.106;2022-11-24T13:37:54;19.10;;;6.20;;
4921;SDS011;16625;53.624;10.106;2022-11-24T13:40:41;18.13;;;5.30;;
4921;SDS011;16625;53.624;10.106;2022-11-24T13:43:19;16.23;;;5.97;;
4921;SDS011;16625;53.624;10.106;2022-11-24T13:45:48;20.03;;;6.10;;
4921;SDS011;16625;53.624;10.106;2022-11-24T13:51:23;16.93;;;6.90;;
4921;SDS011;16625;53.624;10.106;2022-11-24T13:53:51;34.40;;;7.00;;
4921;SDS011;16625;53.624;10.106;2022-11-24T13:56:24;17.33;;;6.27;;
4921;SDS011;16625;53.624;10.106;2022-11-24T13:59:00;13.30;;;5.90;;
4921;SDS011;16625;53.624;10.106;2022-11-24T14:01:40;12.13;;;5.50;;
4921;SDS011;16625;53.624;10.106;2022-11-24T14:04:15;11.80;;;7.00;;
4921;SDS011;16625;53.624;10.106;2022-11-24T14:06:46;14.63;;;7.00;;
4921;SDS011;16625;53.624;10.106;2022-11-24T14:09:23;25.43;;;7.00;;
4921;SDS011;16625;53.624;10.106;2022-11-24T14:11:56;17.20;;;6.80;;
4921;SDS011;16625;53.624;10.106;2022-11-24T14:14:29;19.77;;;7.93;;
4921;SDS011;16625;53.624;10.106;2022-11-24T14:17:07;19.77;;;7.67;;
4921;SDS011;16625;53.624;10.106;2022-11-24T14:19:42;18.87;;;7.27;;
4921;SDS011;16625;53.624;10.106;2022-11-24T14:22:16;18.00;;;6.57;;
4921;SDS011;16625;53.624;10.106;2022-11-24T14:24:49;28.73;;;8.23;;
4921;SDS011;16625;53.624;10.106;2022-11-24T14:27:19;13.97;;;6.57;;
4921;SDS011;16625;53.624;10.106;2022-11-24T14:29:52;11.70;;;7.67;;
4921;SDS011;16625;53.624;10.106;2022-11-24T14:32:20;18.20;;;8.37;;
4921;SDS011;16625;53.624;10.106;2022-11-24T14:34:47;14.50;;;8.70;;
4921;SDS011;16625;53.624;10.106;2022-11-24T14:37:19;25.83;;;8.17;;
4921;SDS011;16625;53.624;10.106;2022-11-24T14:39:52;15.53;;;7.87;;
4921;SDS011;16625;53.624;10.106;2022-11-24T14:42:22;14.17;;;6.73;;
4921;SDS011;16625;53.624;10.106;2022-11-24T14:44:51;16.93;;;6.80;;
4921;SDS011;16625;53.624;10.106;2022-11-24T14:47:26;31.60;;;7.93;;
4921;SDS011;16625;53.624;10.106;2022-11-24T14:49:55;22.73;;;7.67;;
4921;SDS011;16625;53.624;10.106;2022-11-24T14:52:25;21.83;;;6.17;;
4921;SDS011;16625;53.624;10.106;2022-11-24T14:54:53;25.27;;;5.90;;
4921;SDS011;16625;53.624;10.106;2022-11-24T14:57:26;21.00;;;5.27;;
4921;SDS011;16625;53.624;10.106;2022-11-24T15:00:05;17.63;;;5.83;;
4921;SDS011;16625;53.624;10.106;2022-11-24T15:02:42;18.40;;;5.67;;
4921;SDS011;16625;53.624;10.106;2022-11-24T15:05:12;19.17;;;5.97;;
4921;SDS011;16625;53.624;10.106;2022-11-24T15:07:45;19.20;;;6.10;;
4921;SDS011;16625;53.624;10.106;2022-11-24T15:10:22;21.07;;;7.17;;
4921;SDS011;16625;53.624;10.106;2022-11-24T15:12:58;28.00;;;6.23;;
4921;SDS011;16625;53.624;10.106;2022-11-24T15:15:28;17.00;;;6.30;;
4921;SDS011;16625;53.624;10.106;2022-11-24T15:18:05;25.17;;;6.47;;
4921;SDS011;16625;53.624;10.106;2022-11-24T15:20:47;19.30;;;6.20;;
4921;SDS011;16625;53.624;10.106;2022-11-24T15:23:22;27.73;;;6.30;;
4921;SDS011;16625;53.624;10.106;2022-11-24T15:25:50;19.97;;;7.13;;
4921;SDS011;16625;53.624;10.106;2022-11-24T15:28:23;19.03;;;6.40;;
4921;SDS011;16625;53.624;10.106;2022-11-24T15:30:51;15.30;;;5.97;;
4921;SDS011;16625;53.624;10.106;2022-11-24T15:33:19;28.30;;;7.40;;
4921;SDS011;16625;53.624;10.106;2022-11-24T15:58:04;25.10;;;7.17;;
4921;SDS011;16625;53.624;10.106;2022-11-24T16:08:32;17.20;;;6.90;;
4921;SDS011;16625;53.624;10.106;2022-11-24T16:11:16;19.67;;;7.43;;
4921;SDS011;16625;53.624;10.106;2022-11-24T16:39:49;25.90;;;12.00;;
4921;SDS011;16625;53.624;10.106;2022-11-24T16:51:54;19.43;;;8.53;;
4921;SDS011;16625;53.624;10.106;2022-11-24T16:58:14;22.90;;;8.57;;
4921;SDS011;16625;53.624;10.106;2022-11-24T17:00:45;27.13;;;9.17;;
4921;SDS011;16625;53.624;10.106;2022-11-24T17:03:30;15.87;;;7.47;;
4921;SDS011;16625;53.624;10.106;2022-11-24T17:10:17;26.67;;;8.13;;
4921;SDS011;16625;53.624;10.106;2022-11-24T17:23:51;19.17;;;7.20;;
4921;SDS011;16625;53.624;10.106;2022-11-24T17:26:48;18.63;;;7.33;;
4921;SDS011;16625;53.624;10.106;2022-11-24T17:29:52;19.70;;;7.17;;
4921;SDS011;16625;53.624;10.106;2022-11-24T17:33:12;19.87;;;8.97;;
4921;SDS011;16625;53.624;10.106;2022-11-24T17:36:03;18.10;;;10.37;;
4921;SDS011;16625;53.624;10.106;2022-11-24T17:53:06;15.73;;;9.23;;
4921;SDS011;16625;53.624;10.106;2022-11-24T17:55:48;23.10;;;9.93;;
4921;SDS011;16625;53.624;10.106;2022-11-24T17:58:32;22.23;;;9.30;;
4921;SDS011;16625;53.624;10.106;2022-11-24T18:01:19;25.50;;;10.27;;
4921;SDS011;16625;53.624;10.106;2022-11-24T18:04:06;18.57;;;9.07;;
4921;SDS011;16625;53.624;10.106;2022-11-24T18:24:07;26.90;;;13.33;;
4921;SDS011;16625;53.624;10.106;2022-11-24T18:26:53;25.70;;;10.90;;
4921;SDS011;16625;53.624;10.106;2022-11-24T18:29:43;29.73;;;13.10;;
4921;SDS011;16625;53.624;10.106;2022-11-24T18:37:47;22.33;;;11.27;;
4921;SDS011;16625;53.624;10.106;2022-11-24T19:21:17;29.80;;;12.40;;
4921;SDS011;16625;53.624;10.106;2022-11-24T19:23:58;24.87;;;11.40;;
4921;SDS011;16625;53.624;10.106;2022-11-24T19:26:28;20.67;;;11.80;;
4921;SDS011;16625;53.624;10.106;2022-11-24T19:29:14;27.33;;;14.20;;
4921;SDS011;16625;53.624;10.106;2022-11-24T19:31:58;31.60;;;13.57;;
4921;SDS011;16625;53.624;10.106;2022-11-24T19:34:46;33.17;;;14.33;;
4921;SDS011;16625;53.624;10.106;2022-11-24T19:40:22;26.63;;;13.40;;
4921;SDS011;16625;53.624;10.106;2022-11-24T19:43:10;34.70;;;12.67;;
4921;SDS011;16625;53.624;10.106;2022-11-24T19:46:02;34.63;;;14.30;;
4921;SDS011;16625;53.624;10.106;2022-11-24T19:49:07;19.77;;;12.97;;
4921;SDS011;16625;53.624;10.106;2022-11-24T19:51:43;24.63;;;14.40;;
4921;SDS011;16625;53.624;10.106;2022-11-24T19:54:29;28.90;;;12.50;;
4921;SDS011;16625;53.624;10.106;2022-11-24T19:56:58;30.03;;;16.10;;
4921;SDS011;16625;53.624;10.106;2022-11-24T19:59:26;22.77;;;14.07;;
4921;SDS011;16625;53.624;10.106;2022-11-24T20:02:07;28.80;;;13.67;;
4921;SDS011;16625;53.624;10.106;2022-11-24T20:04:37;27.67;;;13.20;;
4921;SDS011;16625;53.624;10.106;2022-11-24T20:07:14;33.47;;;14.97;;
4921;SDS011;16625;53.624;10.106;2022-11-24T20:10:00;24.10;;;14.47;;
4921;SDS011;16625;53.624;10.106;2022-11-24T20:12:44;22.77;;;13.30;;
4921;SDS011;16625;53.624;10.106;2022-11-24T20:15:23;22.80;;;12.40;;
4921;SDS011;16625;53.624;10.106;2022-11-24T20:17:55;31.50;;;13.60;;
4921;SDS011;16625;53.624;10.106;2022-11-24T20:20:54;23.40;;;14.00;;
4921;SDS011;16625;53.624;10.106;2022-11-24T20:23:29;27.50;;;13.77;;
4921;SDS011;16625;53.624;10.106;2022-11-24T20:26:02;24.60;;;14.23;;
4921;SDS011;16625;53.624;10.106;2022-11-24T20:28:30;27.57;;;17.17;;
4921;SDS011;16625;53.624;10.106;2022-11-24T20:31:01;24.30;;;14.17;;
4921;SDS011;16625;53.624;10.106;2022-11-24T20:33:29;25.73;;;13.70;;
4921;SDS011;16625;53.624;10.106;2022-11-24T20:36:12;26.33;;;14.93;;
4921;SDS011;16625;53.624;10.106;2022-11-24T20:38:59;24.77;;;13.17;;
4921;SDS011;16625;53.624;10.106;2022-11-24T20:44:46;29.97;;;14.87;;
4921;SDS011;16625;53.624;10.106;2022-11-24T20:50:08;31.20;;;15.17;;
4921;SDS011;16625;53.624;10.106;2022-11-24T20:52:37;27.53;;;14.43;;
4921;SDS011;16625;53.624;10.106;2022-11-24T20:55:11;33.93;;;16.17;;
4921;SDS011;16625;53.624;10.106;2022-11-24T20:57:54;23.13;;;14.70;;
4921;SDS011;16625;53.624;10.106;2022-11-24T21:00:49;18.07;;;11.80;;
4921;SDS011;16625;53.624;10.106;2022-11-24T21:03:22;18.60;;;11.70;;
4921;SDS011;16625;53.624;10.106;2022-11-24T21:06:06;17.90;;;11.83;;
4921;SDS011;16625;53.624;10.106;2022-11-24T21:08:51;20.80;;;12.53;;
4921;SDS011;16625;53.624;10.106;2022-11-24T21:11:28;23.03;;;12.87;;
4921;SDS011;16625;53.624;10.106;2022-11-24T21:14:05;18.63;;;12.90;;
4921;SDS011;16625;53.624;10.106;2022-11-24T21:16:38;25.53;;;13.50;;
4921;SDS011;16625;53.624;10.106;2022-11-24T21:19:15;16.50;;;12.57;;
4921;SDS011;16625;53.624;10.106;2022-11-24T21:21:47;28.07;;;12.20;;
4921;SDS011;16625;53.624;10.106;2022-11-24T21:24:15;29.23;;;13.13;;
4921;SDS011;16625;53.624;10.106;2022-11-24T21:26:47;22.40;;;13.17;;
4921;SDS011;16625;53.624;10.106;2022-11-24T21:29:19;26.00;;;12.60;;
4921;SDS011;16625;53.624;10.106;2022-11-24T21:31:48;27.17;;;13.20;;
4921;SDS011;16625;53.624;10.106;2022-11-24T21:34:15;22.27;;;12.33;;
4921;SDS011;16625;53.624;10.106;2022-11-24T21:36:50;20.87;;;11.43;;
4921;SDS011;16625;53.624;10.106;2022-11-24T21:39:23;23.17;;;12.80;;
4921;SDS011;16625;53.624;10.106;2022-11-24T21:42:16;33.23;;;13.47;;
4921;SDS011;16625;53.624;10.106;2022-11-24T21:45:24;32.83;;;12.90;;
4921;SDS011;16625;53.624;10.106;2022-11-24T21:48:09;22.47;;;13.80;;
4921;SDS011;16625;53.624;10.106;2022-11-24T21:50:48;23.33;;;13.87;;
4921;SDS011;16625;53.624;10.106;2022-11-24T21:53:28;28.40;;;13.47;;
4921;SDS011;16625;53.624;10.106;2022-11-24T21:56:23;30.37;;;12.60;;
4921;SDS011;16625;53.624;10.106;2022-11-24T21:59:01;31.40;;;13.63;;
4921;SDS011;16625;53.624;10.106;2022-11-24T22:07:51;32.00;;;15.00;;
4921;SDS011;16625;53.624;10.106;2022-11-24T22:10:24;22.17;;;12.20;;
4921;SDS011;16625;53.624;10.106;2022-11-24T22:13:05;24.07;;;12.60;;
4921;SDS011;16625;53.624;10.106;2022-11-24T22:15:57;26.13;;;13.50;;
4921;SDS011;16625;53.624;10.106;2022-11-24T22:18:36;19.50;;;13.87;;
4921;SDS011;16625;53.624;10.106;2022-11-24T22:24:17;28.50;;;13.43;;
4921;SDS011;16625;53.624;10.106;2022-11-24T22:27:06;19.23;;;12.30;;
4921;SDS011;16625;53.624;10.106;2022-11-24T22:29:36;21.70;;;12.40;;
4921;SDS011;16625;53.624;10.106;2022-11-24T22:32:04;29.80;;;15.10;;
4921;SDS011;16625;53.624;10.106;2022-11-24T22:34:34;23.97;;;13.53;;
4921;SDS011;16625;53.624;10.106;2022-11-24T22:37:06;22.10;;;13.47;;
4921;SDS011;16625;53.624;10.106;2022-11-24T22:39:34;21.03;;;13.27;;
4921;SDS011;16625;53.624;10.106;2022-11-24T22:47:16;23.37;;;11.90;;
4921;SDS011;16625;53.624;10.106;2022-11-24T22:49:42;27.40;;;13.63;;
4921;SDS011;16625;53.624;10.106;2022-11-24T22:52:11;25.20;;;11.67;;
4921;SDS011;16625;53.624;10.106;2022-11-24T22:54:39;29.13;;;13.97;;
4921;SDS011;16625;53.624;10.106;2022-11-24T22:57:06;24.77;;;14.67;;
4921;SDS011;16625;53.624;10.106;2022-11-24T22:59:33;23.17;;;13.00;;
4921;SDS011;16625;53.624;10.106;2022-11-24T23:02:00;27.40;;;13.67;;
4921;SDS011;16625;53.624;10.106;2022-11-24T23:04:27;21.43;;;12.00;;
4921;SDS011;16625;53.624;10.106;2022-11-24T23:06:54;24.00;;;14.10;;
4921;SDS011;16625;53.624;10.106;2022-11-24T23:09:24;28.93;;;14.43;;
4921;SDS011;16625;53.624;10.106;2022-11-24T23:11:53;40.70;;;16.80;;
4921;SDS011;16625;53.624;10.106;2022-11-24T23:14:20;23.63;;;12.30;;
4921;SDS011;16625;53.624;10.106;2022-11-24T23:16:47;37.40;;;14.43;;
4921;SDS011;16625;53.624;10.106;2022-11-24T23:19:14;32.07;;;14.30;;
4921;SDS011;16625;53.624;10.106;2022-11-24T23:21:40;27.83;;;14.47;;
4921;SDS011;16625;53.624;10.106;2022-11-24T23:24:08;28.27;;;14.53;;
4921;SDS011;16625;53.624;10.106;2022-11-24T23:26:37;24.77;;;14.33;;
4921;SDS011;16625;53.624;10.106;2022-11-24T23:29:05;33.67;;;14.30;;
4921;SDS011;16625;53.624;10.106;2022-11-24T23:31:33;29.33;;;15.40;;
4921;SDS011;16625;53.624;10.106;2022-11-24T23:34:00;25.50;;;15.63;;
4921;SDS011;16625;53.624;10.106;2022-11-24T23:36:28;31.90;;;14.70;;
4921;SDS011;16625;53.624;10.106;2022-11-24T23:38:56;30.40;;;14.53;;
4921;SDS011;16625;53.624;10.106;2022-11-24T23:41:28;27.90;;;12.30;;
4921;SDS011;16625;53.624;10.106;2022-11-24T23:43:57;26.70;;;13.70;;
4921;SDS011;16625;53.624;10.106;2022-11-24T23:46:25;31.33;;;14.77;;
4921;SDS011;16625;53.624;10.106;2022-11-24T23:48:53;49.13;;;15.50;;
4921;SDS011;16625;53.624;10.106;2022-11-24T23:51:21;32.37;;;14.50;;
4921;SDS011;16625;53.624;10.106;2022-11-24T23:53:49;49.03;;;16.50;;
4921;SDS011;16625;53.624;10.106;2022-11-24T23:56:17;47.87;;;14.97;;
4921;SDS011;16625;53.624;10.106;2022-11-24T23:58:46;27.37;;;15.00;;
